Time;durP1;ratioP1;P1;durP2;ratioP2;P2;SDS_P1;SDS_P2;PMS_P1;PMS_P2;Temp;Humidity;BMP_temperature;BMP_pressure;BME280_temperature;BME280_humidity;BME280_pressure;Samples;Min_cycle;Max_cycle;Signal;HPM_P1;HPM_P2
2021/05/01 00:01:41;;;;;;;27.35;19.98;;;;;;;;;;5136306;27;20092;-68
2021/05/01 00:04:07;;;;;;;28.80;20.55;;;;;;;;;;5138505;27;20050;-68
2021/05/01 00:06:33;;;;;;;26.60;19.77;;;;;;;;;;5135350;27;20131;-68
2021/05/01 00:08:59;;;;;;;27.33;18.73;;;;;;;;;;5136215;27;20104;-69
2021/05/01 00:11:26;;;;;;;28.27;20.58;;;;;;;;;;5135217;27;20487;-68
2021/05/01 00:13:55;;;;;;;25.70;19.80;;;;;;;;;;5135735;27;20100;-68
2021/05/01 00:16:22;;;;;;;28.38;20.25;;;;;;;;;;5136093;27;20055;-68
2021/05/01 00:18:48;;;;;;;26.30;20.45;;;;;;;;;;5135762;27;20186;-68
2021/05/01 00:21:14;;;;;;;25.83;19.65;;;;;;;;;;5135962;27;20063;-68
2021/05/01 00:23:40;;;;;;;27.88;20.30;;;;;;;;;;5136742;27;20160;-68
2021/05/01 00:26:06;;;;;;;28.42;20.42;;;;;;;;;;5136305;27;20047;-69
2021/05/01 00:28:32;;;;;;;28.65;20.23;;;;;;;;;;5135776;27;20484;-68
2021/05/01 00:30:58;;;;;;;29.52;21.33;;;;;;;;;;5138715;27;20043;-68
2021/05/01 00:33:24;;;;;;;27.80;21.13;;;;;;;;;;5135249;27;20059;-69
2021/05/01 00:35:50;;;;;;;28.30;21.83;;;;;;;;;;5135188;27;20078;-68
2021/05/01 00:38:16;;;;;;;26.15;19.70;;;;;;;;;;5132998;27;20043;-69
2021/05/01 00:40:43;;;;;;;27.92;21.33;;;;;;;;;;5138822;27;20111;-68
2021/05/01 00:43:09;;;;;;;31.23;21.58;;;;;;;;;;5135274;27;20054;-68
2021/05/01 00:45:35;;;;;;;26.63;19.95;;;;;;;;;;5135272;27;20556;-68
2021/05/01 00:48:01;;;;;;;26.67;20.65;;;;;;;;;;5135238;27;20437;-68
2021/05/01 00:50:27;;;;;;;25.83;20.42;;;;;;;;;;5138114;27;20048;-68
2021/05/01 00:52:53;;;;;;;30.13;23.65;;;;;;;;;;5131081;27;20043;-68
2021/05/01 00:55:19;;;;;;;28.45;21.20;;;;;;;;;;5130659;27;20361;-68
2021/05/01 00:57:45;;;;;;;27.92;21.02;;;;;;;;;;5135398;27;20051;-69
2021/05/01 01:00:27;;;;;;;27.58;20.73;;;;;;;;;;5130513;27;20047;-68
2021/05/01 01:02:56;;;;;;;26.67;20.02;;;;;;;;;;5133415;27;20612;-67
2021/05/01 01:05:22;;;;;;;28.50;23.02;;;;;;;;;;5136794;27;20095;-67
2021/05/01 01:07:48;;;;;;;33.22;23.98;;;;;;;;;;5130201;27;20139;-67
2021/05/01 01:10:14;;;;;;;30.05;21.70;;;;;;;;;;5129941;27;20047;-66
2021/05/01 01:12:40;;;;;;;33.42;22.65;;;;;;;;;;5138181;27;20048;-66
2021/05/01 01:15:07;;;;;;;29.33;21.63;;;;;;;;;;5135716;27;20085;-68
2021/05/01 01:17:33;;;;;;;31.63;23.30;;;;;;;;;;5137942;27;20043;-67
2021/05/01 01:20:00;;;;;;;31.77;23.08;;;;;;;;;;5136615;27;20073;-67
2021/05/01 01:22:27;;;;;;;28.95;21.65;;;;;;;;;;5134872;27;20491;-67
2021/05/01 01:24:53;;;;;;;25.58;19.63;;;;;;;;;;5135344;27;20062;-67
2021/05/01 01:27:20;;;;;;;36.72;26.02;;;;;;;;;;5139150;27;20050;-67
2021/05/01 01:29:47;;;;;;;32.28;24.10;;;;;;;;;;5133247;27;20627;-67
2021/05/01 01:32:13;;;;;;;32.92;24.05;;;;;;;;;;5135777;27;20126;-67
2021/05/01 01:34:41;;;;;;;35.25;23.95;;;;;;;;;;5135310;27;20060;-67
2021/05/01 01:37:07;;;;;;;29.58;21.77;;;;;;;;;;5135109;27;20039;-67
2021/05/01 01:39:34;;;;;;;30.42;21.80;;;;;;;;;;5135504;27;20063;-66
2021/05/01 01:42:00;;;;;;;28.70;21.40;;;;;;;;;;5138576;27;20483;-67
2021/05/01 01:44:26;;;;;;;30.10;21.13;;;;;;;;;;5135155;27;20039;-67
2021/05/01 01:46:52;;;;;;;27.92;20.63;;;;;;;;;;5135527;27;20483;-67
2021/05/01 01:49:18;;;;;;;27.20;19.88;;;;;;;;;;5135140;27;20070;-67
2021/05/01 01:51:44;;;;;;;29.27;21.73;;;;;;;;;;5135565;27;20137;-67
2021/05/01 01:54:10;;;;;;;24.90;18.52;;;;;;;;;;5131302;27;20054;-67
2021/05/01 01:56:38;;;;;;;26.23;19.92;;;;;;;;;;5133734;27;20049;-67
2021/05/01 01:59:04;;;;;;;26.10;20.25;;;;;;;;;;5135274;27;20050;-67
2021/05/01 02:01:30;;;;;;;27.63;20.42;;;;;;;;;;5133560;27;20065;-67
2021/05/01 02:03:56;;;;;;;25.73;19.13;;;;;;;;;;5134315;27;20049;-67
2021/05/01 02:06:22;;;;;;;24.63;18.67;;;;;;;;;;5135197;27;20044;-67
2021/05/01 02:08:48;;;;;;;25.85;18.73;;;;;;;;;;5135211;27;20145;-67
2021/05/01 02:11:14;;;;;;;25.40;18.13;;;;;;;;;;5134202;27;20079;-67
2021/05/01 02:13:41;;;;;;;25.95;20.08;;;;;;;;;;5130628;27;20075;-67
2021/05/01 02:16:07;;;;;;;25.70;17.80;;;;;;;;;;5135449;27;20053;-67
2021/05/01 02:18:33;;;;;;;23.98;17.23;;;;;;;;;;5135026;27;20449;-68
2021/05/01 02:20:59;;;;;;;24.10;18.52;;;;;;;;;;5134742;27;20126;-67
2021/05/01 02:23:25;;;;;;;25.30;18.45;;;;;;;;;;5126563;27;20126;-67
2021/05/01 02:25:51;;;;;;;28.02;19.85;;;;;;;;;;5137666;27;20078;-68
2021/05/01 02:28:18;;;;;;;27.40;19.25;;;;;;;;;;5135089;27;20540;-67
2021/05/01 02:30:46;;;;;;;25.15;18.80;;;;;;;;;;5128103;27;20489;-68
2021/05/01 02:33:12;;;;;;;26.15;20.02;;;;;;;;;;5136704;27;20453;-67
2021/05/01 02:35:39;;;;;;;25.52;18.48;;;;;;;;;;5135060;27;20158;-67
2021/05/01 02:38:05;;;;;;;27.52;20.48;;;;;;;;;;5133355;27;20039;-67
2021/05/01 02:40:32;;;;;;;29.80;21.17;;;;;;;;;;5129908;27;20556;-67
2021/05/01 02:42:58;;;;;;;30.70;21.63;;;;;;;;;;5137261;27;20070;-67
2021/05/01 02:45:25;;;;;;;27.08;20.67;;;;;;;;;;5131624;27;20157;-67
2021/05/01 02:47:51;;;;;;;28.73;19.67;;;;;;;;;;5134789;27;20510;-67
2021/05/01 02:50:18;;;;;;;27.42;19.80;;;;;;;;;;5134546;27;20055;-67
2021/05/01 02:52:45;;;;;;;29.17;21.20;;;;;;;;;;5137358;27;20054;-67
2021/05/01 02:55:12;;;;;;;26.80;19.63;;;;;;;;;;5132233;27;20088;-67
2021/05/01 02:57:39;;;;;;;26.48;19.27;;;;;;;;;;5134138;27;20043;-68
2021/05/01 03:00:07;;;;;;;27.67;19.50;;;;;;;;;;5133602;27;20471;-67
2021/05/01 03:02:33;;;;;;;29.20;21.10;;;;;;;;;;5133832;27;20435;-68
2021/05/01 03:05:01;;;;;;;27.40;20.10;;;;;;;;;;5136633;27;20402;-67
2021/05/01 03:07:27;;;;;;;27.85;21.52;;;;;;;;;;5133162;27;20046;-67
2021/05/01 03:09:53;;;;;;;29.00;21.98;;;;;;;;;;5129455;27;20047;-67
2021/05/01 03:12:19;;;;;;;32.47;22.83;;;;;;;;;;5132845;27;20054;-67
2021/05/01 03:14:46;;;;;;;30.05;21.83;;;;;;;;;;5133417;27;20043;-67
2021/05/01 03:17:12;;;;;;;30.90;22.30;;;;;;;;;;5133550;27;20213;-67
2021/05/01 03:19:38;;;;;;;29.33;21.63;;;;;;;;;;5133717;27;20077;-67
2021/05/01 03:22:06;;;;;;;31.23;23.20;;;;;;;;;;5135742;27;20092;-66
2021/05/01 03:24:33;;;;;;;31.23;21.80;;;;;;;;;;5125083;27;20039;-70
2021/05/01 03:26:59;;;;;;;34.35;23.77;;;;;;;;;;5130107;27;20047;-67
2021/05/01 03:29:25;;;;;;;31.63;21.83;;;;;;;;;;5133171;28;20043;-66
2021/05/01 03:31:51;;;;;;;31.65;22.73;;;;;;;;;;5133518;27;20099;-66
2021/05/01 03:34:18;;;;;;;35.42;25.35;;;;;;;;;;5133358;28;20122;-67
2021/05/01 03:36:44;;;;;;;34.50;24.63;;;;;;;;;;5133478;28;20081;-66
2021/05/01 03:39:11;;;;;;;35.45;23.92;;;;;;;;;;5133224;27;20039;-66
2021/05/01 03:41:37;;;;;;;35.63;25.48;;;;;;;;;;5133395;28;20460;-65
2021/05/01 03:44:04;;;;;;;33.40;23.92;;;;;;;;;;5132797;28;20074;-65
2021/05/01 03:46:30;;;;;;;30.48;22.77;;;;;;;;;;5132818;28;20051;-66
2021/05/01 03:48:56;;;;;;;27.60;20.80;;;;;;;;;;5132608;27;20180;-66
2021/05/01 03:51:22;;;;;;;28.38;21.80;;;;;;;;;;5132583;28;20096;-66
2021/05/01 03:53:48;;;;;;;27.15;19.85;;;;;;;;;;5132805;28;20055;-66
2021/05/01 03:56:15;;;;;;;30.23;22.27;;;;;;;;;;5131303;28;20047;-66
2021/05/01 03:58:42;;;;;;;32.95;23.60;;;;;;;;;;5132136;28;20047;-66
2021/05/01 04:01:08;;;;;;;26.90;19.65;;;;;;;;;;5129457;27;20047;-65
2021/05/01 04:03:34;;;;;;;33.25;22.65;;;;;;;;;;5133051;27;20077;-66
2021/05/01 04:06:00;;;;;;;36.05;24.73;;;;;;;;;;5132930;28;20069;-66
2021/05/01 04:08:26;;;;;;;31.10;23.50;;;;;;;;;;5133624;27;20054;-66
2021/05/01 04:10:52;;;;;;;35.22;24.48;;;;;;;;;;5133856;27;20047;-66
2021/05/01 04:13:19;;;;;;;35.25;24.42;;;;;;;;;;5133234;28;20123;-65
2021/05/01 04:15:45;;;;;;;30.75;21.92;;;;;;;;;;5132295;28;20043;-66
2021/05/01 04:18:12;;;;;;;35.33;25.30;;;;;;;;;;5132924;28;20047;-67
2021/05/01 04:20:38;;;;;;;35.33;24.63;;;;;;;;;;5132259;27;20047;-66
2021/05/01 04:23:04;;;;;;;35.25;24.23;;;;;;;;;;5134506;27;20131;-66
2021/05/01 04:25:30;;;;;;;30.95;22.40;;;;;;;;;;5133109;28;20035;-66
2021/05/01 04:27:57;;;;;;;37.30;25.70;;;;;;;;;;5130532;28;20089;-66
2021/05/01 04:30:24;;;;;;;34.67;23.13;;;;;;;;;;5129004;27;20523;-66
2021/05/01 04:32:50;;;;;;;30.70;21.85;;;;;;;;;;5132762;27;20134;-66
2021/05/01 04:35:16;;;;;;;32.63;23.85;;;;;;;;;;5136116;27;20066;-66
2021/05/01 04:37:42;;;;;;;39.35;25.52;;;;;;;;;;5136589;27;20050;-66
2021/05/01 04:40:10;;;;;;;32.25;21.95;;;;;;;;;;5136381;27;20476;-66
2021/05/01 04:42:38;;;;;;;29.10;21.17;;;;;;;;;;5136579;27;20060;-66
2021/05/01 04:45:05;;;;;;;34.58;22.67;;;;;;;;;;5137203;27;20142;-66
2021/05/01 04:47:32;;;;;;;35.88;25.17;;;;;;;;;;5136090;27;20528;-66
2021/05/01 04:49:58;;;;;;;32.33;24.27;;;;;;;;;;5136591;27;20063;-66
2021/05/01 04:52:24;;;;;;;30.80;22.27;;;;;;;;;;5140853;27;20481;-66
2021/05/01 04:54:52;;;;;;;32.42;22.92;;;;;;;;;;5136340;27;20054;-66
2021/05/01 04:57:18;;;;;;;33.88;21.88;;;;;;;;;;5135233;27;20175;-66
2021/05/01 04:59:44;;;;;;;31.77;22.58;;;;;;;;;;5136098;27;20043;-67
2021/05/01 05:02:10;;;;;;;33.22;22.83;;;;;;;;;;5136618;27;20122;-66
2021/05/01 05:04:36;;;;;;;35.05;23.58;;;;;;;;;;5136181;27;20046;-67
2021/05/01 05:07:02;;;;;;;35.78;23.80;;;;;;;;;;5143902;27;20054;-66
2021/05/01 05:09:28;;;;;;;35.38;25.10;;;;;;;;;;5135959;27;20050;-67
2021/05/01 05:11:54;;;;;;;38.10;25.25;;;;;;;;;;5133131;27;20059;-66
2021/05/01 05:14:20;;;;;;;35.05;25.05;;;;;;;;;;5136105;27;20403;-67
2021/05/01 05:16:46;;;;;;;37.42;25.70;;;;;;;;;;5141990;27;20130;-67
2021/05/01 05:19:13;;;;;;;34.22;23.80;;;;;;;;;;5135371;27;20043;-67
2021/05/01 05:21:39;;;;;;;38.08;26.60;;;;;;;;;;5135994;27;20467;-68
2021/05/01 05:24:07;;;;;;;39.75;27.25;;;;;;;;;;5135026;27;20039;-67
2021/05/01 05:26:33;;;;;;;39.75;27.10;;;;;;;;;;5135357;27;20407;-67
2021/05/01 05:28:59;;;;;;;39.45;27.80;;;;;;;;;;5137999;27;20047;-67
2021/05/01 05:31:25;;;;;;;40.10;27.35;;;;;;;;;;5133652;27;20134;-67
2021/05/01 05:33:51;;;;;;;37.13;26.20;;;;;;;;;;5138073;27;20380;-67
2021/05/01 05:36:17;;;;;;;39.25;27.15;;;;;;;;;;5135073;27;20049;-68
2021/05/01 05:38:44;;;;;;;45.15;29.88;;;;;;;;;;5134119;27;20396;-69
2021/05/01 05:41:10;;;;;;;40.80;28.40;;;;;;;;;;5135120;27;20043;-67
2021/05/01 05:43:36;;;;;;;38.50;26.45;;;;;;;;;;5135711;27;20075;-67
2021/05/01 05:46:11;;;;;;;45.88;30.42;;;;;;;;;;5131788;27;20043;-68
2021/05/01 05:48:38;;;;;;;38.72;26.98;;;;;;;;;;5134276;27;20115;-67
2021/05/01 05:51:05;;;;;;;38.05;26.42;;;;;;;;;;5134046;27;20054;-67
2021/05/01 05:53:31;;;;;;;42.25;26.17;;;;;;;;;;5135603;27;20384;-68
2021/05/01 05:55:58;;;;;;;45.20;28.48;;;;;;;;;;5131175;27;20546;-68
2021/05/01 05:58:24;;;;;;;43.08;27.10;;;;;;;;;;5132341;27;20141;-68
2021/05/01 06:00:50;;;;;;;43.08;28.48;;;;;;;;;;5133147;27;20043;-68
2021/05/01 06:03:17;;;;;;;41.95;28.02;;;;;;;;;;5134491;27;20499;-67
2021/05/01 06:05:46;;;;;;;45.97;27.83;;;;;;;;;;5132262;27;20108;-67
2021/05/01 06:08:12;;;;;;;42.85;26.98;;;;;;;;;;5133820;27;20043;-67
2021/05/01 06:10:39;;;;;;;41.80;27.67;;;;;;;;;;5134128;27;20054;-67
2021/05/01 06:13:08;;;;;;;40.25;25.25;;;;;;;;;;5133708;27;20047;-67
2021/05/01 06:15:34;;;;;;;41.65;27.38;;;;;;;;;;5130596;27;20066;-68
2021/05/01 06:18:01;;;;;;;45.83;28.10;;;;;;;;;;5134466;27;20559;-67
2021/05/01 06:20:28;;;;;;;45.42;28.10;;;;;;;;;;5133097;27;20427;-66
2021/05/01 06:22:54;;;;;;;43.95;27.27;;;;;;;;;;5131042;27;20055;-68
2021/05/01 06:25:20;;;;;;;44.13;27.77;;;;;;;;;;5130222;27;20445;-68
2021/05/01 06:27:48;;;;;;;41.28;27.42;;;;;;;;;;5131007;27;20047;-68
2021/05/01 06:30:16;;;;;;;45.17;27.15;;;;;;;;;;5131865;27;20266;-68
2021/05/01 06:32:42;;;;;;;38.88;26.50;;;;;;;;;;5131187;27;20456;-69
2021/05/01 06:35:09;;;;;;;44.85;28.05;;;;;;;;;;5132298;27;20099;-68
2021/05/01 06:37:39;;;;;;;41.60;28.17;;;;;;;;;;5130233;27;20047;-68
2021/05/01 06:40:08;;;;;;;42.58;28.35;;;;;;;;;;5130210;27;20051;-68
2021/05/01 06:42:37;;;;;;;40.17;27.08;;;;;;;;;;5130781;27;20039;-67
2021/05/01 06:45:05;;;;;;;40.08;27.65;;;;;;;;;;5130689;27;20075;-67
2021/05/01 06:47:32;;;;;;;39.88;26.20;;;;;;;;;;5128960;27;20047;-68
2021/05/01 06:50:05;;;;;;;35.75;26.10;;;;;;;;;;5131627;27;20046;-68
2021/05/01 06:52:31;;;;;;;41.35;26.45;;;;;;;;;;5130847;27;20043;-68
2021/05/01 06:55:00;;;;;;;42.05;27.88;;;;;;;;;;5131774;27;20044;-67
2021/05/01 06:57:27;;;;;;;38.55;27.13;;;;;;;;;;5130431;27;20055;-67
2021/05/01 06:59:55;;;;;;;39.70;26.73;;;;;;;;;;5129851;27;20091;-67
2021/05/01 07:02:24;;;;;;;35.38;24.45;;;;;;;;;;5131892;27;20407;-67
2021/05/01 07:04:52;;;;;;;38.05;25.33;;;;;;;;;;5131584;27;20043;-67
2021/05/01 07:07:20;;;;;;;34.75;25.45;;;;;;;;;;5130704;27;20043;-67
2021/05/01 07:09:46;;;;;;;39.30;25.60;;;;;;;;;;5131792;27;20049;-67
2021/05/01 07:12:12;;;;;;;35.80;24.88;;;;;;;;;;5130685;27;20047;-67
2021/05/01 07:14:40;;;;;;;36.50;24.70;;;;;;;;;;5132501;27;20096;-68
2021/05/01 07:17:07;;;;;;;36.13;24.92;;;;;;;;;;5131633;27;20104;-68
2021/05/01 07:19:33;;;;;;;37.45;26.33;;;;;;;;;;5131813;27;20065;-67
2021/05/01 07:22:00;;;;;;;39.03;26.50;;;;;;;;;;5133498;27;20511;-68
2021/05/01 07:24:27;;;;;;;40.40;27.08;;;;;;;;;;5133845;27;20115;-68
2021/05/01 07:26:54;;;;;;;40.60;27.23;;;;;;;;;;5133730;27;20042;-67
2021/05/01 07:29:20;;;;;;;43.15;29.17;;;;;;;;;;5124958;28;20044;-67
2021/05/01 07:31:47;;;;;;;39.17;26.02;;;;;;;;;;5135446;27;20108;-67
2021/05/01 07:34:21;;;;;;;40.67;28.25;;;;;;;;;;5133106;28;20047;-67
2021/05/01 07:36:48;;;;;;;43.28;29.42;;;;;;;;;;5133229;28;20070;-67
2021/05/01 07:39:16;;;;;;;44.38;28.63;;;;;;;;;;5132495;28;20054;-67
2021/05/01 07:41:44;;;;;;;39.17;27.58;;;;;;;;;;5139636;27;20054;-67
2021/05/01 07:44:10;;;;;;;41.78;29.05;;;;;;;;;;5133846;28;20113;-68
2021/05/01 07:46:39;;;;;;;45.88;31.70;;;;;;;;;;5133288;28;20049;-68
2021/05/01 07:49:09;;;;;;;41.15;28.17;;;;;;;;;;5132686;28;20082;-67
2021/05/01 07:51:38;;;;;;;41.28;29.05;;;;;;;;;;5133473;28;20058;-67
2021/05/01 07:54:04;;;;;;;47.05;30.70;;;;;;;;;;5132590;27;20043;-67
2021/05/01 07:56:31;;;;;;;48.70;31.73;;;;;;;;;;5132887;28;20047;-67
2021/05/01 07:59:00;;;;;;;42.15;28.83;;;;;;;;;;5131137;28;20445;-67
2021/05/01 08:01:26;;;;;;;42.85;30.27;;;;;;;;;;5125368;27;20058;-67
2021/05/01 08:03:53;;;;;;;40.60;27.40;;;;;;;;;;5128152;28;20048;-69
2021/05/01 08:06:19;;;;;;;37.20;25.40;;;;;;;;;;5134116;27;20043;-66
2021/05/01 08:08:45;;;;;;;37.53;27.42;;;;;;;;;;5135062;27;20055;-66
2021/05/01 08:11:11;;;;;;;33.92;24.75;;;;;;;;;;5138091;27;20134;-66
2021/05/01 08:13:38;;;;;;;36.47;25.38;;;;;;;;;;5137837;27;20479;-66
2021/05/01 08:16:05;;;;;;;34.17;23.50;;;;;;;;;;5137390;27;20051;-66
2021/05/01 08:18:31;;;;;;;31.38;22.88;;;;;;;;;;5136613;27;20515;-67
2021/05/01 08:20:58;;;;;;;29.67;21.13;;;;;;;;;;5136519;27;20047;-67
2021/05/01 08:23:24;;;;;;;28.60;21.25;;;;;;;;;;5136659;27;20047;-67
2021/05/01 08:25:50;;;;;;;31.33;22.55;;;;;;;;;;5132912;27;20047;-67
2021/05/01 08:28:16;;;;;;;30.13;21.63;;;;;;;;;;5140733;27;20511;-67
2021/05/01 08:30:43;;;;;;;30.58;22.77;;;;;;;;;;5136287;27;20039;-67
2021/05/01 08:33:09;;;;;;;30.30;22.75;;;;;;;;;;5133848;27;20070;-67
2021/05/01 08:35:35;;;;;;;30.67;22.88;;;;;;;;;;5135404;27;20395;-67
2021/05/01 08:38:01;;;;;;;29.13;21.23;;;;;;;;;;5135866;27;20057;-67
2021/05/01 08:40:28;;;;;;;29.67;21.60;;;;;;;;;;5136172;27;20074;-67
2021/05/01 08:42:54;;;;;;;28.40;20.92;;;;;;;;;;5136500;27;20043;-67
2021/05/01 08:45:21;;;;;;;29.35;21.38;;;;;;;;;;5135835;27;20409;-68
2021/05/01 08:47:48;;;;;;;29.50;22.20;;;;;;;;;;5136633;27;20061;-67
2021/05/01 08:50:32;;;;;;;27.50;19.83;;;;;;;;;;5135554;27;20053;-68
2021/05/01 08:52:59;;;;;;;25.55;19.05;;;;;;;;;;5132445;27;20058;-67
2021/05/01 08:55:26;;;;;;;27.67;19.45;;;;;;;;;;5135358;27;20126;-69
2021/05/01 08:57:52;;;;;;;26.42;19.27;;;;;;;;;;5135758;27;20476;-66
2021/05/01 09:00:19;;;;;;;27.10;20.35;;;;;;;;;;5131864;27;20043;-67
2021/05/01 09:02:45;;;;;;;25.63;18.65;;;;;;;;;;5134752;27;20069;-64
2021/05/01 09:05:13;;;;;;;25.02;19.33;;;;;;;;;;5138600;27;20047;-66
2021/05/01 09:07:40;;;;;;;29.25;21.73;;;;;;;;;;5157532;27;20126;-66
2021/05/01 09:10:07;;;;;;;25.05;19.13;;;;;;;;;;5156887;27;20043;-67
2021/05/01 09:12:39;;;;;;;23.70;18.02;;;;;;;;;;5157608;27;20043;-66
2021/05/01 09:15:07;;;;;;;25.70;19.85;;;;;;;;;;5157065;27;20047;-66
2021/05/01 09:17:33;;;;;;;24.75;20.17;;;;;;;;;;5154142;27;20642;-66
2021/05/01 09:20:08;;;;;;;23.20;17.92;;;;;;;;;;5135841;27;20084;-67
2021/05/01 09:22:51;;;;;;;23.50;17.98;;;;;;;;;;5136902;27;20051;-67
2021/05/01 09:25:18;;;;;;;22.95;18.00;;;;;;;;;;5135083;27;20495;-66
2021/05/01 09:27:58;;;;;;;24.38;19.60;;;;;;;;;;5134465;27;20039;-66
2021/05/01 09:30:27;;;;;;;26.10;19.30;;;;;;;;;;5134189;27;20050;-68
2021/05/01 09:33:17;;;;;;;24.55;19.75;;;;;;;;;;5127058;27;20043;-67
2021/05/01 09:35:44;;;;;;;24.95;20.73;;;;;;;;;;5131118;27;20039;-66
2021/05/01 09:38:13;;;;;;;22.42;17.45;;;;;;;;;;5136669;27;20055;-67
2021/05/01 09:40:44;;;;;;;22.73;17.35;;;;;;;;;;5137103;27;20502;-66
2021/05/01 09:43:11;;;;;;;23.10;18.70;;;;;;;;;;5137022;27;20047;-67
2021/05/01 09:45:37;;;;;;;23.88;17.70;;;;;;;;;;5137177;27;20043;-67
2021/05/01 09:48:11;;;;;;;22.63;17.90;;;;;;;;;;5137106;27;20458;-67
2021/05/01 09:50:38;;;;;;;22.95;18.23;;;;;;;;;;5136542;27;20055;-66
2021/05/01 09:53:07;;;;;;;21.65;17.52;;;;;;;;;;5136894;27;20051;-66
2021/05/01 09:55:49;;;;;;;20.88;17.35;;;;;;;;;;5136267;27;20415;-67
2021/05/01 09:58:18;;;;;;;21.00;16.63;;;;;;;;;;5136959;27;20051;-66
2021/05/01 10:00:44;;;;;;;21.25;17.77;;;;;;;;;;5136138;27;20496;-67
2021/05/01 10:03:27;;;;;;;21.33;16.75;;;;;;;;;;5132860;27;20100;-67
2021/05/01 10:05:55;;;;;;;20.45;16.63;;;;;;;;;;5129841;27;20096;-68
2021/05/01 10:08:27;;;;;;;22.55;18.30;;;;;;;;;;5136133;27;20045;-67
2021/05/01 10:10:54;;;;;;;23.63;19.63;;;;;;;;;;5135861;27;20048;-65
2021/05/01 10:13:22;;;;;;;23.35;17.80;;;;;;;;;;5135686;27;20057;-69
2021/05/01 10:15:48;;;;;;;24.48;19.33;;;;;;;;;;5135634;27;20597;-68
2021/05/01 10:18:17;;;;;;;23.15;18.25;;;;;;;;;;5135234;27;20078;-66
2021/05/01 10:20:46;;;;;;;20.85;16.73;;;;;;;;;;5134836;27;20054;-68
2021/05/01 10:23:13;;;;;;;23.42;17.35;;;;;;;;;;5134996;27;20046;-67
2021/05/01 10:25:40;;;;;;;25.30;16.75;;;;;;;;;;5135271;27;20050;-68
2021/05/01 10:28:12;;;;;;;20.70;17.20;;;;;;;;;;5134779;27;20082;-68
2021/05/01 10:30:42;;;;;;;20.52;16.20;;;;;;;;;;5134708;27;20043;-69
2021/05/01 10:33:23;;;;;;;20.67;16.85;;;;;;;;;;5133505;27;20047;-70
2021/05/01 10:35:51;;;;;;;19.92;16.75;;;;;;;;;;5134309;27;20133;-70
2021/05/01 10:38:19;;;;;;;22.65;17.80;;;;;;;;;;5134178;27;20051;-70
2021/05/01 10:40:47;;;;;;;20.10;17.85;;;;;;;;;;5134538;27;20051;-71
2021/05/01 10:43:16;;;;;;;21.27;17.25;;;;;;;;;;5134157;27;20051;-70
2021/05/01 10:45:53;;;;;;;22.95;17.92;;;;;;;;;;5134769;27;20053;-71
2021/05/01 10:48:19;;;;;;;19.48;16.38;;;;;;;;;;5134984;27;20408;-69
2021/05/01 10:50:46;;;;;;;20.35;16.90;;;;;;;;;;5134988;27;20051;-70
2021/05/01 10:53:20;;;;;;;21.38;17.27;;;;;;;;;;5134497;27;20103;-69
2021/05/01 10:55:52;;;;;;;21.02;16.70;;;;;;;;;;5142646;27;20076;-69
2021/05/01 10:58:37;;;;;;;21.13;17.27;;;;;;;;;;5146063;27;20486;-69
2021/05/01 11:01:04;;;;;;;18.90;16.52;;;;;;;;;;5134910;27;20051;-68
2021/05/01 11:03:30;;;;;;;20.48;17.02;;;;;;;;;;5130276;27;20099;-68
2021/05/01 11:05:59;;;;;;;20.88;17.38;;;;;;;;;;5126046;27;20079;-70
2021/05/01 11:08:32;;;;;;;21.85;17.88;;;;;;;;;;5135229;27;20483;-69
2021/05/01 11:10:59;;;;;;;21.88;16.95;;;;;;;;;;5134871;27;20047;-69
2021/05/01 11:13:29;;;;;;;23.58;19.23;;;;;;;;;;5134883;27;20051;-68
2021/05/01 11:15:58;;;;;;;23.65;18.30;;;;;;;;;;5133765;27;20092;-68
2021/05/01 11:18:25;;;;;;;22.98;19.00;;;;;;;;;;5134638;27;20047;-69
2021/05/01 11:20:53;;;;;;;22.25;16.90;;;;;;;;;;5134853;27;20047;-70
2021/05/01 11:23:21;;;;;;;22.35;17.73;;;;;;;;;;5134235;27;20043;-69
2021/05/01 11:25:46;;;;;;;23.88;18.58;;;;;;;;;;5133798;27;20043;-68
2021/05/01 11:28:13;;;;;;;24.23;18.17;;;;;;;;;;5133644;27;20510;-68
2021/05/01 11:30:39;;;;;;;22.08;17.55;;;;;;;;;;5134337;28;20445;-68
2021/05/01 11:33:08;;;;;;;24.40;18.02;;;;;;;;;;5133961;28;20430;-68
2021/05/01 11:35:35;;;;;;;23.08;17.40;;;;;;;;;;5133696;28;20065;-68
2021/05/01 11:38:03;;;;;;;21.17;16.58;;;;;;;;;;5133755;28;20051;-68
2021/05/01 11:40:30;;;;;;;22.77;17.70;;;;;;;;;;5133979;28;20069;-68
2021/05/01 11:42:58;;;;;;;23.08;18.02;;;;;;;;;;5134183;27;20043;-69
2021/05/01 11:45:28;;;;;;;23.92;19.30;;;;;;;;;;5137811;27;20075;-69
2021/05/01 11:48:00;;;;;;;20.95;17.95;;;;;;;;;;5138406;27;20050;-68
2021/05/01 11:50:27;;;;;;;24.15;18.02;;;;;;;;;;5138260;27;20110;-68
2021/05/01 11:53:03;;;;;;;25.15;17.52;;;;;;;;;;5138241;27;20058;-69
2021/05/01 11:55:31;;;;;;;22.63;17.00;;;;;;;;;;5137491;27;20091;-68
2021/05/01 11:57:58;;;;;;;22.10;17.00;;;;;;;;;;5137695;27;20076;-68
2021/05/01 12:00:33;;;;;;;20.95;16.77;;;;;;;;;;5138020;27;20051;-69
2021/05/01 12:03:00;;;;;;;20.95;16.13;;;;;;;;;;5134113;27;20087;-69
2021/05/01 12:05:30;;;;;;;20.83;16.05;;;;;;;;;;5129294;27;20062;-69
2021/05/01 12:08:02;;;;;;;21.25;15.60;;;;;;;;;;5132951;27;20054;-69
2021/05/01 12:10:28;;;;;;;21.42;17.30;;;;;;;;;;5125368;27;20051;-69
2021/05/01 12:12:57;;;;;;;19.30;16.27;;;;;;;;;;5131814;27;20388;-72
2021/05/01 12:15:31;;;;;;;22.15;17.92;;;;;;;;;;5157408;27;20047;-70
2021/05/01 12:17:57;;;;;;;21.30;16.95;;;;;;;;;;5158157;27;20075;-70
2021/05/01 12:20:25;;;;;;;21.70;18.10;;;;;;;;;;5147674;27;20043;-70
2021/05/01 12:22:52;;;;;;;20.27;16.55;;;;;;;;;;5131539;27;20043;-70
2021/05/01 12:25:35;;;;;;;21.08;16.58;;;;;;;;;;5147600;27;20436;-70
2021/05/01 12:28:02;;;;;;;21.13;17.38;;;;;;;;;;5143070;27;20051;-70
2021/05/01 12:30:50;;;;;;;22.02;17.17;;;;;;;;;;5136931;27;20051;-70
2021/05/01 12:33:52;;;;;;;19.30;16.45;;;;;;;;;;5130481;27;20062;-68
2021/05/01 12:36:27;;;;;;;18.63;15.77;;;;;;;;;;5109090;27;20430;-68
2021/05/01 12:38:57;;;;;;;19.20;16.20;;;;;;;;;;5130108;27;20082;-69
2021/05/01 12:41:29;;;;;;;19.08;15.95;;;;;;;;;;5136678;27;20043;-69
2021/05/01 12:43:55;;;;;;;18.45;15.60;;;;;;;;;;5135710;27;20399;-69
2021/05/01 12:46:44;;;;;;;20.55;16.75;;;;;;;;;;5129166;27;20100;-68
2021/05/01 12:49:22;;;;;;;18.83;15.57;;;;;;;;;;5120165;27;20151;-69
2021/05/01 12:52:19;;;;;;;20.83;16.23;;;;;;;;;;5128437;27;20054;-69
2021/05/01 12:54:46;;;;;;;17.60;15.27;;;;;;;;;;5131938;27;20047;-69
2021/05/01 12:57:14;;;;;;;18.33;15.90;;;;;;;;;;5135221;27;20051;-69
2021/05/01 12:59:43;;;;;;;19.33;15.13;;;;;;;;;;5138822;27;20051;-69
2021/05/01 13:02:14;;;;;;;19.85;15.50;;;;;;;;;;5133792;27;20051;-68
2021/05/01 13:04:40;;;;;;;19.88;17.05;;;;;;;;;;5131274;27;20050;-69
2021/05/01 13:07:08;;;;;;;20.05;16.15;;;;;;;;;;5134625;27;20055;-70
2021/05/01 13:09:37;;;;;;;20.90;17.63;;;;;;;;;;5133846;27;20094;-69
2021/05/01 13:12:06;;;;;;;19.30;16.52;;;;;;;;;;5136425;27;20479;-69
2021/05/01 13:14:33;;;;;;;21.38;17.48;;;;;;;;;;5129323;27;20065;-69
2021/05/01 13:17:06;;;;;;;20.70;16.75;;;;;;;;;;5136437;27;20105;-69
2021/05/01 13:19:34;;;;;;;21.05;17.20;;;;;;;;;;5136705;27;20046;-69
2021/05/01 13:22:01;;;;;;;20.27;16.67;;;;;;;;;;5136243;27;20047;-69
2021/05/01 13:24:29;;;;;;;19.02;15.90;;;;;;;;;;5135639;27;20529;-68
2021/05/01 13:26:55;;;;;;;21.40;17.70;;;;;;;;;;5136138;27;20054;-69
2021/05/01 13:29:27;;;;;;;19.70;15.23;;;;;;;;;;5127578;27;20130;-69
2021/05/01 13:31:53;;;;;;;23.50;17.58;;;;;;;;;;5126531;27;20051;-69
2021/05/01 13:34:19;;;;;;;21.90;17.80;;;;;;;;;;5127348;27;20051;-69
2021/05/01 13:36:45;;;;;;;22.75;16.83;;;;;;;;;;5126331;27;20096;-69
2021/05/01 13:39:19;;;;;;;21.48;17.13;;;;;;;;;;5135159;27;20384;-69
2021/05/01 13:42:04;;;;;;;23.25;16.55;;;;;;;;;;5136875;27;20054;-70
2021/05/01 13:44:39;;;;;;;22.65;17.48;;;;;;;;;;5134985;27;20043;-70
2021/05/01 13:47:05;;;;;;;21.75;16.20;;;;;;;;;;5124508;27;20122;-69
2021/05/01 13:49:31;;;;;;;22.77;17.40;;;;;;;;;;5115326;28;20055;-69
2021/05/01 13:51:57;;;;;;;27.15;18.88;;;;;;;;;;5127587;27;20130;-69
2021/05/01 13:54:25;;;;;;;20.73;16.38;;;;;;;;;;5135582;27;20059;-69
2021/05/01 13:56:51;;;;;;;20.40;16.25;;;;;;;;;;5136892;27;20043;-69
2021/05/01 13:59:27;;;;;;;21.95;16.90;;;;;;;;;;5136520;27;20411;-69
2021/05/01 14:01:55;;;;;;;18.98;15.85;;;;;;;;;;5141922;27;20133;-70
2021/05/01 14:04:28;;;;;;;18.02;15.55;;;;;;;;;;5135426;27;20466;-69
2021/05/01 14:06:55;;;;;;;18.77;15.25;;;;;;;;;;5146957;27;20045;-69
2021/05/01 14:09:21;;;;;;;19.50;16.25;;;;;;;;;;5137424;27;20083;-69
2021/05/01 14:11:46;;;;;;;19.88;15.50;;;;;;;;;;5134599;27;20051;-69
2021/05/01 14:14:13;;;;;;;20.88;15.93;;;;;;;;;;5130531;27;20047;-68
2021/05/01 14:16:39;;;;;;;20.45;15.70;;;;;;;;;;5134140;27;20084;-68
2021/05/01 14:19:18;;;;;;;23.00;17.00;;;;;;;;;;5135285;27;20046;-69
2021/05/01 14:21:44;;;;;;;18.83;15.55;;;;;;;;;;5131200;27;20483;-69